createdAt,value
2023-03-05T00:00:01.049Z,10.17
2023-03-05T00:02:30.201Z,6.40
2023-03-05T00:04:58.026Z,9.10
2023-03-05T00:07:25.850Z,6.33
2023-03-05T00:09:53.743Z,7.23
2023-03-05T00:12:21.529Z,11.20
2023-03-05T00:14:49.422Z,8.47
2023-03-05T00:17:17.469Z,10.00
2023-03-05T00:19:46.766Z,4.03
2023-03-05T00:22:14.615Z,7.83
2023-03-05T00:24:42.421Z,9.37
2023-03-05T00:27:10.230Z,10.83
2023-03-05T00:29:38.060Z,10.43
2023-03-05T00:32:06.080Z,9.50
2023-03-05T00:34:34.034Z,7.93
2023-03-05T00:37:03.166Z,6.43
2023-03-05T00:39:30.945Z,7.77
2023-03-05T00:41:58.956Z,6.03
2023-03-05T00:44:26.867Z,9.33
2023-03-05T00:46:54.796Z,8.17
2023-03-05T00:49:22.826Z,5.13
2023-03-05T00:51:50.602Z,9.30
2023-03-05T00:54:19.781Z,4.77
2023-03-05T00:56:49.087Z,10.87
2023-03-05T00:59:16.886Z,8.13
2023-03-05T01:01:44.770Z,6.30
2023-03-05T01:04:12.618Z,8.73
2023-03-05T01:06:42.806Z,7.67
2023-03-05T01:09:10.653Z,4.80
2023-03-05T01:11:39.929Z,5.63
2023-03-05T01:14:07.728Z,7.47
2023-03-05T01:16:35.669Z,7.27
2023-03-05T01:19:03.567Z,6.83
2023-03-05T01:21:31.421Z,11.87
2023-03-05T01:23:59.902Z,10.73
2023-03-05T01:26:27.966Z,10.83
2023-03-05T01:28:57.411Z,7.30
2023-03-05T01:31:25.418Z,7.27
2023-03-05T01:33:54.041Z,6.47
2023-03-05T01:36:25.014Z,7.27
2023-03-05T01:38:53.465Z,10.87
2023-03-05T01:41:22.085Z,10.17
2023-03-05T01:43:50.314Z,5.07
2023-03-05T01:46:36.204Z,8.40
2023-03-05T01:49:14.628Z,8.67
2023-03-05T01:51:50.664Z,6.73
2023-03-05T01:54:21.955Z,9.47
2023-03-05T01:56:52.691Z,9.63
2023-03-05T01:59:22.679Z,7.33
2023-03-05T02:01:55.816Z,10.93
2023-03-05T02:04:28.692Z,7.83
2023-03-05T02:06:56.491Z,14.47
2023-03-05T02:09:24.426Z,7.73
2023-03-05T02:11:52.833Z,10.03
2023-03-05T02:14:21.912Z,6.67
2023-03-05T02:16:51.386Z,6.60
2023-03-05T02:19:19.420Z,4.97
2023-03-05T02:21:50.282Z,6.23
2023-03-05T02:24:20.895Z,7.27
2023-03-05T02:26:48.922Z,8.10
2023-03-05T02:29:20.208Z,12.40
2023-03-05T02:31:48.107Z,6.03
2023-03-05T02:34:16.173Z,11.00
2023-03-05T02:36:43.975Z,7.07
2023-03-05T02:39:13.727Z,9.20
2023-03-05T02:41:41.495Z,7.30
2023-03-05T02:44:09.410Z,7.37
2023-03-05T02:46:37.422Z,12.33
2023-03-05T02:49:05.338Z,11.07
2023-03-05T02:51:33.391Z,6.53
2023-03-05T02:54:01.356Z,6.30
2023-03-05T02:56:30.557Z,9.47
2023-03-05T02:58:58.593Z,7.63
2023-03-05T03:01:28.269Z,6.43
2023-03-05T03:03:56.320Z,9.73
2023-03-05T03:06:24.286Z,4.87
2023-03-05T03:08:52.295Z,7.20
2023-03-05T03:11:21.387Z,5.40
2023-03-05T03:13:50.722Z,8.63
2023-03-05T03:16:19.032Z,10.03
2023-03-05T03:18:48.839Z,9.00
2023-03-05T03:21:21.572Z,11.03
2023-03-05T03:23:49.456Z,8.07
2023-03-05T03:26:17.760Z,6.57
2023-03-05T03:28:46.325Z,4.57
2023-03-05T03:31:15.805Z,6.70
2023-03-05T03:33:43.622Z,7.47
2023-03-05T03:36:11.724Z,6.03
2023-03-05T03:38:39.586Z,7.90
2023-03-05T03:41:08.383Z,5.33
2023-03-05T03:43:36.195Z,3.57
2023-03-05T03:46:05.761Z,6.53
2023-03-05T03:48:36.198Z,8.97
2023-03-05T03:51:07.076Z,5.83
2023-03-05T03:53:35.236Z,7.33
2023-03-05T03:56:03.587Z,7.50
2023-03-05T03:58:31.568Z,12.13
2023-03-05T04:00:59.472Z,8.77
2023-03-05T04:03:27.415Z,5.67
2023-03-05T04:05:56.627Z,7.83
2023-03-05T04:08:24.441Z,7.90
2023-03-05T04:10:52.247Z,9.40
2023-03-05T04:13:20.311Z,7.53
2023-03-05T04:15:48.179Z,8.63
2023-03-05T04:18:15.963Z,8.33
2023-03-05T04:20:43.798Z,7.30
2023-03-05T04:23:13.012Z,9.57
2023-03-05T04:25:40.829Z,9.57
2023-03-05T04:28:08.700Z,9.70
2023-03-05T04:30:37.107Z,8.97
2023-03-05T04:33:05.192Z,14.60
2023-03-05T04:35:33.286Z,13.07
2023-03-05T04:38:01.439Z,10.07
2023-03-05T04:40:30.685Z,10.97
2023-03-05T04:42:58.481Z,9.67
2023-03-05T04:45:26.326Z,11.80
2023-03-05T04:47:54.284Z,13.70
2023-03-05T04:50:22.448Z,10.10
2023-03-05T04:52:50.340Z,9.13
2023-03-05T04:55:18.882Z,10.80
2023-03-05T04:57:48.046Z,11.17
2023-03-05T05:00:17.875Z,10.53
2023-03-05T05:02:47.373Z,8.93
2023-03-05T05:05:18.349Z,12.57
2023-03-05T05:07:46.392Z,12.80
2023-03-05T05:10:16.264Z,11.47
2023-03-05T05:12:44.651Z,10.30
2023-03-05T05:15:14.806Z,12.33
2023-03-05T05:17:42.639Z,8.80
2023-03-05T05:20:12.460Z,7.00
2023-03-05T05:22:40.622Z,8.03
2023-03-05T05:25:09.046Z,7.33
2023-03-05T05:27:37.145Z,7.50
2023-03-05T05:30:05.705Z,8.43
2023-03-05T05:32:35.182Z,11.23
2023-03-05T05:35:03.833Z,8.63
2023-03-05T05:37:31.966Z,8.47
2023-03-05T05:40:00.157Z,6.60
2023-03-05T05:42:29.440Z,8.50
2023-03-05T05:44:57.352Z,7.23
2023-03-05T05:47:25.104Z,6.80
2023-03-05T05:49:54.314Z,5.27
2023-03-05T05:52:22.322Z,8.67
2023-03-05T05:54:50.119Z,7.17
2023-03-05T05:57:17.849Z,8.00
2023-03-05T05:59:45.828Z,5.87
2023-03-05T06:02:13.728Z,6.27
2023-03-05T06:04:41.538Z,3.80
2023-03-05T06:07:10.777Z,8.90
2023-03-05T06:09:38.636Z,7.43
2023-03-05T06:12:07.698Z,6.40
2023-03-05T06:14:35.623Z,5.57
2023-03-05T06:17:03.444Z,5.57
2023-03-05T06:19:31.175Z,6.07
2023-03-05T06:21:59.040Z,5.83
2023-03-05T06:24:28.193Z,6.13
2023-03-05T06:26:56.034Z,3.03
2023-03-05T06:29:24.079Z,5.83
2023-03-05T06:31:52.161Z,7.37
2023-03-05T06:34:19.964Z,7.30
2023-03-05T06:36:47.762Z,6.83
2023-03-05T06:39:15.597Z,6.97
2023-03-05T06:41:44.827Z,3.57
2023-03-05T06:44:12.733Z,8.67
2023-03-05T06:46:40.616Z,6.47
2023-03-05T06:49:09.496Z,5.70
2023-03-05T06:51:39.952Z,8.53
2023-03-05T06:54:09.638Z,7.07
2023-03-05T06:56:39.143Z,8.77
2023-03-05T06:59:09.486Z,11.87
2023-03-05T07:01:44.147Z,9.57
2023-03-05T07:04:17.018Z,7.23
2023-03-05T07:06:48.433Z,11.60
2023-03-05T07:09:18.843Z,8.77
2023-03-05T07:11:53.493Z,8.60
2023-03-05T07:14:25.500Z,10.77
2023-03-05T07:17:21.763Z,8.27
2023-03-05T07:19:56.909Z,7.97
2023-03-05T07:22:26.764Z,8.57
2023-03-05T07:24:55.006Z,8.80
2023-03-05T07:27:26.639Z,11.23
2023-03-05T07:29:58.416Z,8.67
2023-03-05T07:32:26.354Z,5.87
2023-03-05T07:35:02.009Z,7.47
2023-03-05T07:37:35.993Z,5.83
2023-03-05T07:40:24.200Z,3.27
2023-03-05T07:42:55.040Z,4.10
2023-03-05T07:49:47.360Z,7.87
2023-03-05T07:52:50.467Z,5.33
2023-03-05T07:55:45.256Z,7.73
2023-03-05T07:58:22.323Z,7.03
2023-03-05T08:00:52.330Z,6.47
2023-03-05T08:03:23.635Z,5.50
2023-03-05T08:05:57.525Z,5.30
2023-03-05T08:08:33.569Z,8.23
2023-03-05T08:11:32.345Z,8.33
2023-03-05T08:14:15.916Z,3.97
2023-03-05T08:17:40.990Z,6.53
2023-03-05T08:23:31.217Z,4.93
2023-03-05T08:25:59.120Z,3.43
2023-03-05T08:28:27.340Z,5.80
2023-03-05T08:31:24.188Z,9.37
2023-03-05T08:34:00.422Z,4.23
2023-03-05T08:37:17.449Z,3.77
2023-03-05T08:39:56.325Z,4.60
2023-03-05T08:51:01.163Z,5.60
2023-03-05T08:53:30.878Z,4.93
2023-03-05T08:56:05.737Z,4.87
2023-03-05T09:02:08.397Z,2.80
2023-03-05T09:05:30.126Z,4.33
2023-03-05T09:08:21.551Z,5.23
2023-03-05T09:15:04.268Z,3.40
2023-03-05T09:18:04.117Z,6.33
2023-03-05T09:20:46.398Z,4.13
2023-03-05T09:23:18.856Z,8.30
2023-03-05T09:25:57.832Z,3.50
2023-03-05T09:28:29.477Z,2.97
2023-03-05T09:31:24.658Z,3.40
2023-03-05T09:33:59.002Z,3.43
2023-03-05T09:36:29.001Z,2.97
2023-03-05T09:39:04.807Z,3.07
2023-03-05T09:42:01.832Z,4.67
2023-03-05T09:44:41.779Z,2.67
2023-03-05T09:47:40.347Z,3.03
2023-03-05T09:50:29.343Z,4.37
2023-03-05T09:53:29.152Z,5.60
2023-03-05T09:56:12.479Z,3.20
2023-03-05T09:58:48.867Z,3.00
2023-03-05T10:01:22.408Z,4.73
2023-03-05T10:03:56.879Z,4.57
2023-03-05T10:06:31.051Z,3.83
2023-03-05T10:09:05.494Z,5.73
2023-03-05T10:11:47.201Z,4.50
2023-03-05T10:14:39.297Z,3.53
2023-03-05T10:17:28.281Z,3.27
2023-03-05T10:20:20.696Z,4.57
2023-03-05T10:23:05.523Z,6.77
2023-03-05T10:26:13.189Z,3.47
2023-03-05T10:29:16.927Z,4.73
2023-03-05T10:32:15.300Z,5.10
2023-03-05T10:35:22.068Z,5.17
2023-03-05T10:38:36.768Z,4.17
2023-03-05T10:41:54.576Z,2.53
2023-03-05T10:44:37.882Z,4.60
2023-03-05T10:47:37.055Z,4.63
2023-03-05T10:50:33.559Z,3.47
2023-03-05T10:53:16.428Z,3.03
2023-03-05T10:55:44.578Z,2.43
2023-03-05T10:58:13.680Z,1.83
2023-03-05T11:01:02.511Z,3.40
2023-03-05T11:03:53.681Z,3.37
2023-03-05T11:06:31.012Z,6.80
2023-03-05T11:09:17.743Z,4.37
2023-03-05T11:11:45.799Z,2.63
2023-03-05T11:14:31.210Z,3.20
2023-03-05T11:17:27.564Z,2.80
2023-03-05T11:19:56.087Z,4.77
2023-03-05T11:22:33.100Z,2.80
2023-03-05T11:25:28.191Z,5.27
2023-03-05T11:28:10.160Z,3.60
2023-03-05T11:30:38.532Z,7.77
2023-03-05T11:33:25.658Z,2.70
2023-03-05T11:36:29.396Z,2.10
2023-03-05T11:39:23.422Z,1.93
2023-03-05T11:42:14.712Z,3.67
2023-03-05T11:45:12.356Z,2.27
2023-03-05T11:47:57.200Z,1.43
2023-03-05T11:54:24.820Z,5.97
2023-03-05T11:57:33.186Z,1.67
2023-03-05T12:00:14.262Z,4.73
2023-03-05T12:03:17.789Z,6.40
2023-03-05T12:05:57.451Z,6.10
2023-03-05T12:08:40.816Z,5.07
2023-03-05T12:11:41.404Z,6.10
2023-03-05T12:14:37.121Z,2.63
2023-03-05T12:17:11.128Z,4.30
2023-03-05T12:19:48.886Z,1.63
2023-03-05T12:22:37.462Z,3.33
2023-03-05T12:25:33.502Z,4.33
2023-03-05T12:29:01.602Z,4.37
2023-03-05T12:31:44.516Z,3.33
2023-03-05T12:35:23.834Z,3.60
2023-03-05T12:38:26.547Z,4.33
2023-03-05T12:42:26.126Z,3.00
2023-03-05T12:45:33.740Z,3.90
2023-03-05T12:48:43.117Z,3.50
2023-03-05T12:52:14.687Z,2.70
2023-03-05T12:58:18.283Z,5.90
2023-03-05T13:00:51.291Z,2.40
2023-03-05T13:03:22.179Z,4.13
2023-03-05T13:05:53.475Z,5.37
2023-03-05T13:08:23.275Z,5.50
2023-03-05T13:10:56.302Z,7.73
2023-03-05T13:13:25.754Z,7.50
2023-03-05T13:15:55.114Z,5.40
2023-03-05T13:18:26.073Z,3.87
2023-03-05T13:21:04.686Z,3.37
2023-03-05T13:23:33.948Z,2.87
2023-03-05T13:26:04.734Z,3.30
2023-03-05T13:29:27.221Z,4.70
2023-03-05T13:31:59.805Z,3.47
2023-03-05T13:35:22.669Z,4.33
2023-03-05T13:38:20.395Z,4.50
2023-03-05T13:41:22.412Z,2.37
2023-03-05T13:55:33.916Z,6.50
2023-03-05T14:02:00.498Z,3.50
2023-03-05T14:04:38.313Z,4.13
2023-03-05T14:07:35.236Z,3.83
2023-03-05T14:10:15.604Z,2.03
2023-03-05T14:12:45.158Z,2.53
2023-03-05T14:15:22.980Z,1.77
2023-03-05T14:18:12.887Z,4.70
2023-03-05T14:20:42.330Z,4.10
2023-03-05T14:23:28.080Z,4.10
2023-03-05T14:26:23.625Z,2.10
2023-03-05T14:29:02.322Z,3.40
2023-03-05T14:31:40.295Z,3.50
2023-03-05T14:34:08.924Z,3.63
2023-03-05T14:36:49.065Z,2.37
2023-03-05T14:39:29.568Z,4.73
2023-03-05T14:42:13.340Z,2.83
2023-03-05T14:44:47.907Z,2.20
2023-03-05T14:47:15.783Z,2.47
2023-03-05T14:49:49.604Z,6.63
2023-03-05T14:52:29.846Z,1.57
2023-03-05T14:55:18.921Z,1.87
2023-03-05T14:57:56.229Z,3.10
2023-03-05T15:00:32.693Z,3.23
2023-03-05T15:03:21.114Z,3.07
2023-03-05T15:05:57.672Z,2.13
2023-03-05T15:08:32.666Z,5.37
2023-03-05T15:11:03.463Z,3.77
2023-03-05T15:13:37.388Z,5.17
2023-03-05T15:16:06.856Z,3.33
2023-03-05T15:18:40.595Z,3.50
2023-03-05T15:21:08.549Z,4.00
2023-03-05T15:23:44.573Z,10.33
2023-03-05T15:26:21.967Z,3.87
2023-03-05T15:28:49.899Z,4.70
2023-03-05T15:31:25.212Z,6.67
2023-03-05T15:33:53.720Z,4.43
2023-03-05T15:36:27.441Z,5.13
2023-03-05T15:38:55.289Z,2.67
2023-03-05T15:41:30.974Z,4.60
2023-03-05T15:43:58.816Z,3.77
2023-03-05T15:46:36.242Z,3.47
2023-03-05T15:49:13.146Z,2.83
2023-03-05T15:51:41.007Z,5.33
2023-03-05T15:54:12.129Z,4.30
2023-03-05T15:56:41.874Z,3.27
2023-03-05T15:59:14.757Z,2.33
2023-03-05T16:01:53.844Z,3.43
2023-03-05T16:04:21.837Z,3.47
2023-03-05T16:12:05.212Z,4.17
2023-03-05T16:45:58.837Z,3.37
2023-03-05T16:57:46.096Z,1.90
2023-03-05T17:06:08.082Z,1.67
2023-03-05T17:32:12.720Z,2.57
2023-03-05T17:35:28.900Z,3.33
2023-03-05T17:42:18.365Z,3.57
2023-03-05T17:45:33.158Z,2.63
2023-03-05T17:52:26.486Z,4.93
2023-03-05T17:54:55.059Z,3.13
2023-03-05T17:57:27.821Z,4.20
2023-03-05T17:59:56.009Z,3.23
2023-03-05T18:02:33.506Z,2.13
2023-03-05T18:05:06.311Z,3.10
2023-03-05T18:16:08.469Z,3.30
2023-03-05T18:19:47.173Z,1.93
2023-03-05T18:22:49.761Z,1.10
2023-03-05T18:25:30.831Z,2.43
2023-03-05T18:28:16.543Z,2.07
2023-03-05T18:30:47.205Z,5.07
2023-03-05T18:33:26.396Z,2.07
2023-03-05T18:35:55.182Z,2.97
2023-03-05T18:38:24.422Z,1.93
2023-03-05T18:40:53.375Z,3.37
2023-03-05T18:43:53.621Z,2.90
2023-03-05T18:50:32.383Z,2.80
2023-03-05T18:53:44.431Z,1.37
2023-03-05T18:57:00.708Z,3.33
2023-03-05T19:03:14.155Z,4.50
2023-03-05T19:06:31.516Z,4.40
2023-03-05T19:09:29.004Z,2.17
2023-03-05T19:12:13.135Z,1.20
2023-03-05T19:15:08.561Z,3.83
2023-03-05T19:17:49.806Z,3.27
2023-03-05T19:20:44.503Z,2.77
2023-03-05T19:23:51.746Z,2.23
2023-03-05T19:30:52.915Z,3.40
2023-03-05T19:34:06.231Z,2.37
2023-03-05T19:41:35.710Z,4.03
2023-03-05T19:45:17.938Z,2.20
2023-03-05T19:48:26.212Z,3.80
2023-03-05T19:51:05.496Z,3.33
2023-03-05T19:53:52.172Z,3.00
2023-03-05T19:56:27.751Z,2.33
2023-03-05T19:58:55.929Z,3.33
2023-03-05T20:01:45.273Z,5.33
2023-03-05T20:04:48.478Z,3.57
2023-03-05T20:11:29.756Z,2.70
2023-03-05T20:13:57.840Z,3.50
2023-03-05T20:16:27.909Z,3.87
2023-03-05T20:18:56.610Z,6.17
2023-03-05T20:21:27.222Z,2.90
2023-03-05T20:23:57.695Z,6.57
2023-03-05T20:26:26.825Z,3.17
2023-03-05T20:28:57.660Z,8.27
2023-03-05T20:31:27.792Z,4.43
2023-03-05T20:34:18.998Z,4.53
2023-03-05T20:37:40.115Z,3.90
2023-03-05T20:40:10.061Z,2.80
2023-03-05T20:42:38.226Z,2.40
2023-03-05T20:45:07.249Z,5.00
2023-03-05T20:47:40.611Z,2.57
2023-03-05T20:54:31.572Z,4.80
2023-03-05T20:57:23.348Z,3.63
2023-03-05T21:00:29.283Z,3.77
2023-03-05T21:03:42.051Z,2.47
2023-03-05T21:06:13.360Z,2.87
2023-03-05T21:08:41.504Z,2.67
2023-03-05T21:11:40.456Z,2.50
2023-03-05T21:14:17.898Z,2.87
2023-03-05T21:17:22.333Z,4.37
2023-03-05T21:20:09.680Z,3.83
2023-03-05T21:22:39.954Z,4.33
2023-03-05T21:25:31.767Z,2.40
2023-03-05T21:28:04.038Z,5.37
2023-03-05T21:30:34.621Z,4.87
2023-03-05T21:33:11.943Z,6.27
2023-03-05T21:35:42.620Z,2.43
2023-03-05T21:38:14.108Z,7.33
2023-03-05T21:40:45.548Z,6.33
2023-03-05T21:43:21.418Z,3.40
2023-03-05T21:46:14.542Z,4.47
2023-03-05T21:48:51.506Z,1.97
2023-03-05T21:51:46.450Z,4.87
2023-03-05T21:54:18.898Z,3.90
2023-03-05T21:56:57.014Z,4.53
2023-03-05T21:59:29.217Z,4.47
2023-03-05T22:02:05.688Z,4.83
2023-03-05T22:04:52.460Z,3.30
2023-03-05T22:07:27.936Z,3.20
2023-03-05T22:10:01.240Z,3.67
2023-03-05T22:12:45.576Z,5.83
2023-03-05T22:15:27.642Z,4.40
2023-03-05T22:17:55.974Z,3.60
2023-03-05T22:20:30.301Z,3.03
2023-03-05T22:22:58.825Z,5.10
2023-03-05T22:25:36.946Z,5.27
2023-03-05T22:28:09.416Z,4.63
2023-03-05T22:30:56.633Z,3.23
2023-03-05T22:33:31.808Z,2.77
2023-03-05T22:36:21.232Z,5.20
2023-03-05T22:39:02.473Z,2.73
2023-03-05T22:41:39.845Z,2.80
2023-03-05T22:44:16.321Z,3.90
2023-03-05T22:47:13.698Z,5.83
2023-03-05T22:49:54.178Z,4.43
2023-03-05T22:52:23.406Z,3.90
2023-03-05T22:54:56.133Z,3.87
2023-03-05T22:57:34.170Z,2.13
2023-03-05T23:00:19.064Z,2.77
2023-03-05T23:03:03.211Z,3.70
2023-03-05T23:06:02.529Z,5.87
2023-03-05T23:08:39.158Z,1.93
2023-03-05T23:11:45.933Z,2.17
2023-03-05T23:14:15.203Z,3.73
2023-03-05T23:16:54.265Z,2.13
2023-03-05T23:19:28.614Z,3.80
2023-03-05T23:21:56.743Z,3.57
2023-03-05T23:24:24.627Z,2.73
2023-03-05T23:26:54.070Z,6.03
2023-03-05T23:29:54.564Z,3.77
2023-03-05T23:32:22.364Z,2.67
2023-03-05T23:34:51.567Z,2.13
2023-03-05T23:37:25.008Z,3.10
2023-03-05T23:40:08.836Z,5.10
2023-03-05T23:42:38.246Z,2.90
2023-03-05T23:45:09.214Z,3.40
2023-03-05T23:47:47.968Z,1.93
2023-03-05T23:50:35.922Z,5.07
2023-03-05T23:53:22.559Z,5.00
2023-03-05T23:55:51.026Z,3.53
2023-03-05T23:58:23.415Z,1.67
